Time;durP1;ratioP1;P1;durP2;ratioP2;P2;SDS_P1;SDS_P2;PMS_P1;PMS_P2;Temp;Humidity;BMP_temperature;BMP_pressure;BME280_temperature;BME280_humidity;BME280_pressure;Samples;Min_cycle;Max_cycle;Signal;HPM_P1;HPM_P2
2022/08/06 00:02:24;;;;;;;4.53;1.52;;;;;;;14.43;85.78;102427.28;5114409;28;20081;-62
2022/08/06 00:04:57;;;;;;;9.13;1.77;;;;;;;14.42;86.16;102428.22;5113149;28;20042;-55
2022/08/06 00:07:25;;;;;;;5.35;1.23;;;;;;;14.40;86.95;102424.78;5114618;28;20043;-54
2022/08/06 00:09:56;;;;;;;8.75;1.35;;;;;;;14.41;87.05;102432.66;5112707;28;20043;-61
2022/08/06 00:12:30;;;;;;;6.97;1.40;;;;;;;14.28;88.15;102429.84;5111119;28;20101;-53
2022/08/06 00:15:02;;;;;;;5.88;1.23;;;;;;;14.34;87.24;102433.94;5114024;28;20040;-60
2022/08/06 00:17:41;;;;;;;5.88;1.35;;;;;;;14.28;88.21;102429.84;5114348;28;20071;-53
2022/08/06 00:20:11;;;;;;;7.55;1.60;;;;;;;14.31;87.68;102428.81;5114184;28;20055;-62
2022/08/06 00:22:56;;;;;;;3.47;1.40;;;;;;;14.31;87.32;102434.94;5113800;28;20497;-61
2022/08/06 00:25:24;;;;;;;4.82;1.20;;;;;;;14.16;88.56;102436.66;5111090;28;20071;-61
2022/08/06 00:27:53;;;;;;;6.50;1.50;;;;;;;14.11;89.68;102440.50;5111625;28;20048;-61
2022/08/06 00:30:22;;;;;;;7.00;1.40;;;;;;;14.05;90.17;102440.84;5113364;28;20040;-52
2022/08/06 00:32:51;;;;;;;5.70;1.38;;;;;;;13.96;90.03;102439.53;5111937;28;20455;-50
2022/08/06 00:35:21;;;;;;;5.30;1.60;;;;;;;13.94;90.42;102442.28;5110953;28;20806;-61
2022/08/06 00:37:56;;;;;;;6.97;1.42;;;;;;;13.98;90.35;102441.16;5112666;28;20055;-53
2022/08/06 00:40:29;;;;;;;3.65;1.35;;;;;;;13.95;90.87;102440.50;5110915;27;20131;-55
2022/08/06 00:42:58;;;;;;;8.30;1.50;;;;;;;14.03;90.17;102440.94;5112375;28;20097;-55
2022/08/06 00:45:30;;;;;;;7.35;1.50;;;;;;;14.06;90.09;102450.47;5113752;28;20063;-52
2022/08/06 00:47:59;;;;;;;5.60;1.40;;;;;;;14.07;90.33;102444.25;5113408;28;20049;-61
2022/08/06 00:50:31;;;;;;;5.40;1.60;;;;;;;14.05;90.41;102444.34;5113644;28;20039;-62
2022/08/06 00:53:00;;;;;;;7.95;1.60;;;;;;;14.07;90.80;102452.19;5112285;28;20059;-62
2022/08/06 00:55:29;;;;;;;3.97;1.30;;;;;;;13.98;90.88;102446.47;5111430;28;20102;-62
2022/08/06 00:58:03;;;;;;;4.47;1.25;;;;;;;13.97;90.76;102451.84;5112590;28;20116;-62
2022/08/06 01:00:34;;;;;;;10.50;2.10;;;;;;;13.91;91.05;102463.59;5113368;28;20066;-62
2022/08/06 01:03:05;;;;;;;9.15;1.73;;;;;;;14.02;90.67;102460.38;5113366;28;20100;-52
2022/08/06 01:05:33;;;;;;;8.50;2.03;;;;;;;13.98;91.30;102469.41;5112997;28;20051;-61
2022/08/06 01:08:21;;;;;;;7.30;1.40;;;;;;;13.95;91.09;102469.59;5111118;28;20527;-50
2022/08/06 01:10:51;;;;;;;4.72;1.50;;;;;;;13.84;91.84;102472.81;5111273;28;20521;-54
2022/08/06 01:13:19;;;;;;;10.05;1.70;;;;;;;13.80;92.59;102479.19;5113117;28;20043;-52
2022/08/06 01:16:11;;;;;;;7.05;1.73;;;;;;;13.71;93.12;102479.69;5112711;28;20043;-62
2022/08/06 01:19:02;;;;;;;5.45;1.50;;;;;;;13.68;93.29;102483.34;5113444;28;20657;-49
2022/08/06 01:21:55;;;;;;;7.47;1.85;;;;;;;13.64;93.81;102482.63;5110646;28;20070;-53
2022/08/06 01:25:10;;;;;;;4.82;1.38;;;;;;;13.65;94.46;102483.50;5109520;28;20497;-51
2022/08/06 01:27:45;;;;;;;8.73;1.88;;;;;;;13.56;95.29;102484.81;5113108;28;20100;-62
2022/08/06 01:30:17;;;;;;;8.90;1.55;;;;;;;13.58;95.71;102488.25;5110710;28;20162;-61
2022/08/06 01:32:56;;;;;;;4.68;1.45;;;;;;;13.67;95.48;102489.53;5109494;28;20055;-51
2022/08/06 01:35:31;;;;;;;5.00;1.45;;;;;;;13.57;96.37;102493.63;5112233;28;20471;-61
2022/08/06 01:38:22;;;;;;;8.85;1.67;;;;;;;13.57;96.83;102498.91;5112534;28;20546;-49
2022/08/06 01:40:53;;;;;;;5.60;1.98;;;;;;;13.50;97.26;102503.66;5112563;28;20055;-51
2022/08/06 01:43:24;;;;;;;5.78;1.38;;;;;;;13.50;97.31;102493.09;5110656;28;20528;-54
2022/08/06 01:46:15;;;;;;;7.95;1.42;;;;;;;13.44;98.16;102502.19;5110413;28;20043;-61
2022/08/06 01:48:45;;;;;;;7.13;1.50;;;;;;;13.45;97.87;102503.03;5112829;28;20043;-62
2022/08/06 01:51:13;;;;;;;4.75;1.50;;;;;;;13.38;98.21;102499.84;5113056;28;20043;-61
2022/08/06 01:54:04;;;;;;;5.40;1.35;;;;;;;13.39;98.61;102506.84;5109304;28;20567;-50
2022/08/06 01:56:36;;;;;;;;;;;;;;;13.31;99.06;102512.47;5111778;28;20051;-62
2022/08/06 01:59:30;;;;;;;6.50;1.52;;;;;;;13.28;99.87;102515.28;5112027;28;20409;-53
2022/08/06 02:02:01;;;;;;;7.97;1.77;;;;;;;13.32;99.17;102511.53;5110298;28;20051;-50
2022/08/06 02:04:36;;;;;;;6.25;1.50;;;;;;;13.30;100.00;102517.84;5111450;28;20039;-61
2022/08/06 02:07:10;;;;;;;6.00;1.50;;;;;;;13.33;100.00;102512.38;5112372;28;20043;-59
2022/08/06 02:10:01;;;;;;;6.75;1.40;;;;;;;13.31;100.00;102512.47;5112786;28;20081;-61
2022/08/06 02:12:30;;;;;;;5.70;1.45;;;;;;;13.28;100.00;102507.34;5111364;28;20108;-51
2022/08/06 02:15:05;;;;;;;5.43;1.20;;;;;;;13.34;100.00;102512.31;5112282;28;20497;-52
2022/08/06 02:17:40;;;;;;;5.70;1.63;;;;;;;13.33;100.00;102507.09;5109960;28;20128;-60
2022/08/06 02:20:33;;;;;;;6.75;1.48;;;;;;;13.40;99.76;102510.31;5110387;28;20075;-52
2022/08/06 02:23:07;;;;;;;5.07;1.58;;;;;;;13.41;99.57;102512.03;5111513;28;20075;-60
2022/08/06 02:25:39;;;;;;;4.30;1.58;;;;;;;13.34;99.73;102517.59;5112342;28;20517;-61
2022/08/06 02:28:09;;;;;;;11.13;1.90;;;;;;;13.21;100.00;102524.44;5111872;28;20047;-61
2022/08/06 02:30:42;;;;;;;6.22;1.58;;;;;;;13.14;100.00;102523.00;5110847;28;20525;-61
2022/08/06 02:33:16;;;;;;;6.43;1.70;;;;;;;13.22;100.00;102525.28;5111379;28;20047;-51
2022/08/06 02:35:48;;;;;;;5.00;1.67;;;;;;;13.13;100.00;102523.94;5113432;28;20490;-58
2022/08/06 02:38:25;;;;;;;5.03;1.55;;;;;;;13.25;100.00;102525.13;5112788;28;20465;-60
2022/08/06 02:41:00;;;;;;;5.30;1.52;;;;;;;13.10;100.00;102524.97;5113263;28;20467;-52
2022/08/06 02:43:35;;;;;;;7.57;1.60;;;;;;;13.05;100.00;102524.34;5115894;28;20521;-54
2022/08/06 02:46:12;;;;;;;5.28;1.50;;;;;;;13.17;100.00;102526.38;5113894;28;20062;-51
2022/08/06 02:48:43;;;;;;;5.40;1.73;;;;;;;12.98;100.00;102523.78;5116169;28;20052;-54
2022/08/06 02:51:18;;;;;;;4.90;1.60;;;;;;;12.94;100.00;102519.56;5113433;28;20044;-61
2022/08/06 02:54:10;;;;;;;4.38;1.40;;;;;;;12.89;100.00;102523.38;5113666;28;20448;-60
2022/08/06 02:56:43;;;;;;;6.70;2.13;;;;;;;12.89;100.00;102526.00;5115958;28;20044;-60
2022/08/06 02:59:16;;;;;;;7.40;2.17;;;;;;;12.83;100.00;102525.38;5115904;28;20502;-59
2022/08/06 03:01:51;;;;;;;4.97;1.50;;;;;;;12.82;100.00;102522.81;5116832;28;20047;-60
2022/08/06 03:04:24;;;;;;;6.28;1.60;;;;;;;12.81;100.00;102527.22;5114460;28;20081;-54
2022/08/06 03:07:03;;;;;;;6.15;1.40;;;;;;;12.84;100.00;102534.13;5115471;28;20095;-50
2022/08/06 03:09:52;;;;;;;6.88;1.73;;;;;;;12.74;100.00;102530.25;5115308;28;20447;-58
2022/08/06 03:12:25;;;;;;;8.18;2.08;;;;;;;12.59;100.00;102537.09;5114825;28;20134;-62
2022/08/06 03:14:59;;;;;;;8.20;1.90;;;;;;;12.62;100.00;102539.59;5113028;28;20100;-48
2022/08/06 03:17:40;;;;;;;6.20;2.00;;;;;;;12.72;100.00;102534.72;5114687;28;20093;-61
2022/08/06 03:20:09;;;;;;;5.88;1.95;;;;;;;12.71;100.00;102533.00;5115347;28;20043;-55
2022/08/06 03:22:49;;;;;;;7.78;1.77;;;;;;;12.69;100.00;102543.66;5116105;28;20051;-62
2022/08/06 03:25:20;;;;;;;4.97;1.85;;;;;;;12.79;100.00;102538.81;5115005;28;20134;-53
2022/08/06 03:27:53;;;;;;;7.45;2.15;;;;;;;12.67;100.00;102533.16;5115221;28;20048;-53
2022/08/06 03:30:30;;;;;;;4.47;1.67;;;;;;;12.64;100.00;102537.75;5115359;28;20440;-52
2022/08/06 03:33:05;;;;;;;8.15;1.70;;;;;;;12.61;100.00;102541.38;5114866;28;20101;-52
2022/08/06 03:35:55;;;;;;;9.18;2.10;;;;;;;12.60;100.00;102541.47;5113980;28;20047;-61
2022/08/06 03:38:25;;;;;;;4.43;1.55;;;;;;;12.64;100.00;102538.59;5112714;28;20130;-61
2022/08/06 03:40:56;;;;;;;;;;;;;;;12.57;100.00;102544.22;5115261;28;20608;-49
2022/08/06 03:43:24;;;;;;;7.07;1.90;;;;;;;12.55;100.00;102548.72;5114241;28;19968;-52
2022/08/06 03:46:03;;;;;;;5.88;1.70;;;;;;;12.49;100.00;102550.72;5111666;28;20044;-60
2022/08/06 03:48:35;;;;;;;4.95;1.80;;;;;;;12.42;100.00;102545.78;5114360;28;20152;-60
2022/08/06 03:51:12;;;;;;;5.15;1.95;;;;;;;12.27;100.00;102548.22;5114952;28;20410;-60
2022/08/06 03:53:43;;;;;;;4.57;1.60;;;;;;;12.40;100.00;102553.78;5114842;28;20054;-62
2022/08/06 03:56:21;;;;;;;6.93;1.85;;;;;;;12.36;100.00;102551.34;5115182;28;20063;-62
2022/08/06 03:59:01;;;;;;;5.90;2.40;;;;;;;12.40;100.00;102553.78;5114806;28;20044;-61
2022/08/06 04:01:38;;;;;;;6.85;1.88;;;;;;;12.39;100.00;102559.13;5113046;28;20427;-55
2022/08/06 04:04:20;;;;;;;5.93;1.80;;;;;;;12.32;100.00;102556.78;5113798;28;20039;-51
2022/08/06 04:06:57;;;;;;;6.97;2.08;;;;;;;12.41;100.00;102559.94;5111237;28;20052;-59
2022/08/06 04:09:27;;;;;;;6.70;2.20;;;;;;;12.39;100.00;102564.41;5113016;28;20438;-52
2022/08/06 04:12:16;;;;;;;6.95;1.90;;;;;;;12.38;100.00;102568.84;5115160;28;20043;-59
2022/08/06 04:15:06;;;;;;;6.55;1.95;;;;;;;12.31;100.00;102562.97;5115296;28;20043;-61
2022/08/06 04:17:38;;;;;;;6.70;2.20;;;;;;;12.34;100.00;102556.72;5115035;28;20054;-57
2022/08/06 04:20:14;;;;;;;6.18;2.00;;;;;;;12.31;100.00;102572.66;5113714;28;20082;-60
2022/08/06 04:22:43;;;;;;;4.95;2.00;;;;;;;12.21;100.00;102580.13;5110674;28;20092;-59
2022/08/06 04:25:35;;;;;;;8.38;2.13;;;;;;;12.24;100.00;102587.06;5114758;28;20047;-57
2022/08/06 04:28:06;;;;;;;7.90;2.10;;;;;;;12.31;100.00;102586.72;5114289;28;20061;-50
2022/08/06 04:30:38;;;;;;;8.68;2.40;;;;;;;12.18;100.00;102580.28;5112831;28;20105;-53
2022/08/06 04:33:18;;;;;;;8.30;2.03;;;;;;;12.21;100.00;102585.41;5113435;28;20082;-57
2022/08/06 04:35:49;;;;;;;5.38;1.88;;;;;;;12.26;100.00;102583.44;5111565;28;20520;-53
2022/08/06 04:38:38;;;;;;;5.80;1.90;;;;;;;12.28;100.00;102584.19;5112063;28;20047;-49
2022/08/06 04:41:08;;;;;;;6.82;2.22;;;;;;;12.41;100.00;102581.03;5113910;28;20427;-60
2022/08/06 04:43:43;;;;;;;6.07;2.33;;;;;;;12.45;100.00;102593.16;5114050;28;20118;-52
2022/08/06 04:46:23;;;;;;;6.88;2.20;;;;;;;12.44;100.00;102589.66;5114222;28;20507;-59
2022/08/06 04:48:54;;;;;;;6.43;2.10;;;;;;;12.39;100.00;102596.06;5114044;28;20083;-53
2022/08/06 04:51:30;;;;;;;5.93;2.00;;;;;;;12.35;100.00;102595.34;5114454;28;20052;-51
2022/08/06 04:54:18;;;;;;;7.43;2.50;;;;;;;12.29;100.00;102604.38;5113852;28;20040;-52
2022/08/06 04:56:54;;;;;;;11.80;2.65;;;;;;;12.33;100.00;102603.31;5112760;28;20112;-60
2022/08/06 04:59:25;;;;;;;6.47;2.38;;;;;;;12.42;100.00;102604.72;5113433;28;20088;-55
2022/08/06 05:02:13;;;;;;;5.85;2.20;;;;;;;12.40;100.00;102603.91;5111368;28;20052;-60
2022/08/06 05:04:42;;;;;;;5.93;2.50;;;;;;;12.44;100.00;102609.91;5111253;28;20081;-62
2022/08/06 05:07:17;;;;;;;11.63;2.50;;;;;;;12.52;100.00;102607.78;5112125;28;20050;-61
2022/08/06 05:09:50;;;;;;;7.53;2.50;;;;;;;12.58;100.00;102604.84;5113506;28;20043;-51
2022/08/06 05:12:26;;;;;;;8.70;2.97;;;;;;;12.66;100.00;102617.69;5111907;28;20045;-61
2022/08/06 05:15:01;;;;;;;5.70;2.50;;;;;;;12.66;100.00;102617.69;5109394;28;20499;-50
2022/08/06 05:17:34;;;;;;;6.15;2.53;;;;;;;12.72;100.00;102627.13;5112101;28;20101;-60
2022/08/06 05:20:10;;;;;;;7.78;2.75;;;;;;;12.71;100.00;102618.34;5111749;28;20096;-61
2022/08/06 05:23:00;;;;;;;5.82;2.50;;;;;;;12.66;100.00;102628.25;5110641;28;20537;-52
2022/08/06 05:25:30;;;;;;;7.78;3.10;;;;;;;12.63;100.00;102618.69;5112809;28;20039;-52
2022/08/06 05:28:05;;;;;;;6.30;2.92;;;;;;;12.77;100.00;102619.84;5110865;28;20059;-60
2022/08/06 05:30:44;;;;;;;7.07;2.72;;;;;;;12.81;100.00;102626.69;5110153;28;20143;-60
2022/08/06 05:33:12;;;;;;;7.03;2.67;;;;;;;12.88;100.00;102628.13;5113094;28;20156;-57
2022/08/06 05:35:44;;;;;;;7.65;2.70;;;;;;;12.97;100.00;102630.34;5112099;28;20498;-50
2022/08/06 05:38:34;;;;;;;6.20;2.60;;;;;;;12.97;100.00;102632.97;5112959;28;20043;-53
2022/08/06 05:41:06;;;;;;;10.55;2.60;;;;;;;13.08;100.00;102634.28;5111584;28;20449;-51
2022/08/06 05:43:35;;;;;;;7.88;2.95;;;;;;;13.20;100.00;102636.31;5110110;28;20043;-52
2022/08/06 05:46:25;;;;;;;6.43;2.90;;;;;;;13.29;100.00;102638.53;5111691;28;20130;-61
2022/08/06 05:49:01;;;;;;;7.53;2.70;;;;;;;13.38;100.00;102636.41;5110610;28;20080;-61
2022/08/06 05:51:54;;;;;;;9.25;2.95;;;;;;;13.46;100.00;102645.66;5111437;28;20126;-53
2022/08/06 05:54:31;;;;;;;19.42;3.13;;;;;;;13.58;100.00;102646.84;5112584;28;20054;-61
2022/08/06 05:57:05;;;;;;;8.95;2.65;;;;;;;13.72;100.00;102655.91;5112623;28;20070;-62
2022/08/06 05:59:39;;;;;;;7.60;2.20;;;;;;;13.82;100.00;102655.31;5112869;28;20046;-57
2022/08/06 06:02:29;;;;;;;7.13;2.03;;;;;;;13.95;100.00;102660.03;5112467;28;20047;-62
2022/08/06 06:05:00;;;;;;;11.07;2.40;;;;;;;14.06;100.00;102656.81;5110086;28;20054;-49
2022/08/06 06:07:49;;;;;;;8.85;2.58;;;;;;;14.22;100.00;102659.53;5110509;28;20185;-48
2022/08/06 06:10:40;;;;;;;6.80;2.50;;;;;;;14.34;100.00;102662.41;5113396;28;20044;-62
2022/08/06 06:13:21;;;;;;;6.30;1.92;;;;;;;14.47;100.00;102653.81;5113506;28;20085;-62
2022/08/06 06:16:17;;;;;;;9.15;2.00;;;;;;;14.64;99.37;102658.22;5116646;28;20051;-62
2022/08/06 06:19:07;;;;;;;9.38;2.13;;;;;;;14.74;99.03;102654.16;5116449;28;20044;-61
2022/08/06 06:21:51;;;;;;;5.43;1.45;;;;;;;14.89;96.67;102652.47;5115216;28;20052;-53
2022/08/06 06:24:24;;;;;;;5.63;1.58;;;;;;;15.04;94.71;102656.91;5116469;28;20505;-51
2022/08/06 06:27:00;;;;;;;3.83;1.40;;;;;;;15.18;94.55;102661.44;5116431;28;20502;-62
2022/08/06 06:29:37;;;;;;;5.05;1.50;;;;;;;15.35;94.69;102655.19;5116294;28;20048;-63
2022/08/06 06:32:36;;;;;;;5.78;1.13;;;;;;;15.51;92.38;102662.28;5113466;28;20096;-62
2022/08/06 06:35:18;;;;;;;6.13;1.77;;;;;;;15.67;91.66;102665.75;5114482;28;20062;-61
2022/08/06 06:37:57;;;;;;;5.47;1.02;;;;;;;15.83;89.64;102664.91;5116535;28;20081;-63
2022/08/06 06:40:44;;;;;;;7.60;1.45;;;;;;;16.00;87.94;102670.03;5116072;28;20062;-53
2022/08/06 06:43:38;;;;;;;3.50;1.08;;;;;;;16.10;88.53;102665.06;5115092;28;20059;-63
2022/08/06 06:46:20;;;;;;;5.55;1.10;;;;;;;16.21;86.46;102667.91;5113428;28;20051;-62
2022/08/06 06:49:32;;;;;;;7.18;1.10;;;;;;;16.45;88.43;102661.22;5115791;28;20138;-52
2022/08/06 06:52:25;;;;;;;4.32;1.00;;;;;;;16.67;84.77;102656.25;5115943;28;20443;-51
2022/08/06 06:55:02;;;;;;;4.55;0.90;;;;;;;16.87;84.30;102662.13;5115854;28;20046;-62
2022/08/06 06:57:46;;;;;;;5.18;1.15;;;;;;;16.96;81.82;102655.41;5115965;28;20423;-54
2022/08/06 07:00:16;;;;;;;3.35;0.88;;;;;;;17.03;80.17;102654.06;5113828;28;20061;-55
2022/08/06 07:03:06;;;;;;;7.03;1.15;;;;;;;17.27;80.05;102664.91;5113093;28;20097;-54
2022/08/06 07:05:39;;;;;;;4.30;0.70;;;;;;;17.41;82.08;102661.38;5115656;28;20074;-53
2022/08/06 07:08:29;;;;;;;2.60;0.80;;;;;;;17.58;77.20;102650.44;5115100;28;20092;-53
2022/08/06 07:11:10;;;;;;;3.63;0.82;;;;;;;17.72;77.11;102657.53;5113072;28;20053;-62
2022/08/06 07:13:41;;;;;;;5.18;0.98;;;;;;;17.89;76.90;102660.84;5112226;28;20062;-53
2022/08/06 07:16:22;;;;;;;3.10;0.80;;;;;;;18.02;76.96;102669.72;5115427;28;20130;-55
2022/08/06 07:19:05;;;;;;;4.00;1.23;;;;;;;18.15;75.83;102674.25;5115739;28;20050;-63
2022/08/06 07:21:39;;;;;;;2.88;0.60;;;;;;;18.28;73.01;102667.09;5114818;28;20067;-62
2022/08/06 07:24:12;;;;;;;3.22;0.88;;;;;;;18.47;72.79;102671.13;5115226;28;20394;-52
2022/08/06 07:27:02;;;;;;;4.38;0.82;;;;;;;18.63;72.10;102673.59;5115348;28;20433;-63
2022/08/06 07:29:32;;;;;;;5.15;0.90;;;;;;;18.75;71.90;102675.38;5115022;28;20061;-63
2022/08/06 07:32:22;;;;;;;2.63;1.05;;;;;;;18.87;70.83;102677.16;5111129;28;20047;-62
2022/08/06 07:35:00;;;;;;;7.13;0.93;;;;;;;18.98;69.51;102683.56;5112296;28;20050;-63
2022/08/06 07:37:45;;;;;;;2.83;0.80;;;;;;;19.03;68.37;102670.75;5114407;28;20043;-62
2022/08/06 07:40:19;;;;;;;6.68;1.40;;;;;;;19.25;68.75;102676.22;5114440;28;20137;-53
2022/08/06 07:42:54;;;;;;;5.63;1.02;;;;;;;19.37;68.33;102671.81;5114553;28;20691;-64
2022/08/06 07:45:25;;;;;;;4.43;0.73;;;;;;;19.49;66.84;102675.38;5113270;28;20043;-63
2022/08/06 07:48:18;;;;;;;2.55;0.70;;;;;;;19.63;64.53;102676.16;5114060;28;20035;-53
2022/08/06 07:50:49;;;;;;;3.13;0.95;;;;;;;19.71;64.88;102685.28;5112426;28;20055;-54
2022/08/06 07:53:22;;;;;;;3.30;0.80;;;;;;;19.87;63.92;102684.16;5111063;28;20089;-54
2022/08/06 07:56:11;;;;;;;3.15;0.93;;;;;;;19.86;63.02;102685.13;5114681;28;20470;-63
2022/08/06 07:58:43;;;;;;;3.67;0.70;;;;;;;19.87;60.61;102682.34;5114318;28;20055;-64
2022/08/06 08:01:13;;;;;;;4.07;0.77;;;;;;;20.03;60.93;102682.03;5114327;28;20055;-63
2022/08/06 08:06:54;;;;;;;3.67;0.70;;;;;;;20.17;58.66;102675.63;5113173;28;20043;-51
2022/08/06 08:09:26;;;;;;;2.72;0.60;;;;;;;20.34;60.57;102687.69;5114246;28;20047;-51
2022/08/06 08:12:17;;;;;;;4.05;0.75;;;;;;;20.47;58.43;102689.38;5111230;28;20047;-62
2022/08/06 08:15:03;;;;;;;4.10;0.77;;;;;;;20.64;58.33;102688.88;5112526;28;20048;-62
2022/08/06 08:17:33;;;;;;;1.92;0.90;;;;;;;20.83;55.13;102693.63;5112164;28;20154;-53
2022/08/06 08:20:06;;;;;;;2.13;0.50;;;;;;;21.05;53.98;102687.44;5112318;28;20047;-62
2022/08/06 08:22:48;;;;;;;3.28;0.77;;;;;;;21.24;53.60;102697.47;5114643;28;20052;-62
2022/08/06 08:25:18;;;;;;;6.68;0.88;;;;;;;21.28;53.59;102687.34;5114580;28;20051;-62
2022/08/06 08:28:08;;;;;;;3.15;0.70;;;;;;;21.15;53.80;102695.56;5113765;28;20052;-55
2022/08/06 08:30:40;;;;;;;3.65;0.98;;;;;;;21.47;52.12;102688.53;5114172;28;20047;-63
2022/08/06 08:33:09;;;;;;;1.90;0.60;;;;;;;21.78;50.44;102695.72;5114009;28;20035;-54
2022/08/06 08:35:44;;;;;;;2.78;0.60;;;;;;;21.89;49.80;102688.63;5114464;28;20101;-63
2022/08/06 08:38:28;;;;;;;1.65;0.68;;;;;;;21.97;48.92;102690.66;5073557;28;20705;-55
2022/08/06 08:41:00;;;;;;;3.25;0.90;;;;;;;22.26;50.60;102696.19;5073141;28;20049;-64
2022/08/06 08:43:34;;;;;;;2.60;0.70;;;;;;;22.43;48.36;102687.56;5073174;28;20079;-63
2022/08/06 08:46:23;;;;;;;4.28;0.77;;;;;;;22.53;48.52;102690.28;5071942;28;20048;-55
2022/08/06 08:49:01;;;;;;;5.15;0.93;;;;;;;22.81;48.31;102681.63;5070490;28;20041;-54
2022/08/06 08:51:34;;;;;;;3.05;0.68;;;;;;;22.82;47.71;102692.22;5072472;28;20036;-55
2022/08/06 08:54:14;;;;;;;3.28;0.70;;;;;;;22.88;46.41;102693.53;5071650;28;20388;-54
2022/08/06 08:56:47;;;;;;;1.50;0.55;;;;;;;22.14;43.47;102694.56;5072733;28;20044;-55
2022/08/06 08:59:36;;;;;;;2.05;0.50;;;;;;;22.34;45.37;102696.41;5073134;28;20044;-63
2022/08/06 09:02:26;;;;;;;2.28;0.60;;;;;;;22.37;43.45;102697.97;5073028;28;20051;-64
2022/08/06 09:04:58;;;;;;;2.78;0.77;;;;;;;22.72;45.79;102702.91;5072041;28;20056;-54
2022/08/06 09:07:31;;;;;;;4.85;0.80;;;;;;;23.10;46.47;102693.28;5068778;28;20048;-52
2022/08/06 09:10:05;;;;;;;3.30;0.60;;;;;;;23.19;44.55;102698.84;5071007;28;20388;-51
2022/08/06 09:12:33;;;;;;;3.03;0.70;;;;;;;23.51;44.12;102689.69;5069359;28;20551;-52
2022/08/06 09:15:13;;;;;;;3.30;0.65;;;;;;;23.23;43.12;102697.56;5070359;28;20080;-62
2022/08/06 09:17:45;;;;;;;3.13;0.70;;;;;;;23.52;44.83;102694.94;5072235;28;20095;-62
2022/08/06 09:20:35;;;;;;;3.50;0.55;;;;;;;23.36;42.09;102695.47;5071856;28;20044;-62
2022/08/06 09:23:05;;;;;;;2.78;0.82;;;;;;;23.35;42.35;102699.13;5072036;28;20068;-53
2022/08/06 09:25:43;;;;;;;2.38;0.50;;;;;;;23.39;41.56;102689.81;5072139;28;20400;-53
2022/08/06 09:28:36;;;;;;;2.08;0.55;;;;;;;23.58;42.10;102691.66;5071851;28;20052;-63
2022/08/06 09:31:07;;;;;;;3.28;0.80;;;;;;;23.54;41.17;102692.94;5072237;28;20491;-63
2022/08/06 09:33:58;;;;;;;3.65;0.88;;;;;;;23.54;42.04;102697.47;5069604;28;20052;-62
2022/08/06 09:36:47;;;;;;;2.47;0.82;;;;;;;23.73;41.22;102696.63;5084231;28;20060;-62
2022/08/06 09:39:34;;;;;;;2.95;0.60;;;;;;;23.73;41.91;102699.31;5112568;28;20047;-63
2022/08/06 09:42:39;;;;;;;2.65;0.80;;;;;;;23.85;40.39;102700.00;5112936;28;20040;-63
2022/08/06 09:45:08;;;;;;;1.67;0.40;;;;;;;23.77;42.77;102698.03;5091888;28;20548;-61
2022/08/06 09:47:45;;;;;;;2.63;0.73;;;;;;;23.67;40.73;102692.66;5092267;28;20079;-55
2022/08/06 09:50:37;;;;;;;3.67;0.85;;;;;;;23.58;41.69;102686.28;5088455;28;20044;-57
2022/08/06 09:53:09;;;;;;;0.90;0.60;;;;;;;23.86;40.25;102699.00;5089055;28;20047;-57
2022/08/06 09:55:42;;;;;;;;;;;;;;;24.18;39.88;102692.47;5092576;28;20047;-57
2022/08/06 09:58:11;;;;;;;3.35;0.70;;;;;;;24.53;39.29;102688.22;5092004;28;19924;-62
2022/08/06 10:00:40;;;;;;;1.75;0.65;;;;;;;25.04;40.25;102688.72;5089105;28;20075;-57
2022/08/06 10:03:13;;;;;;;2.40;0.90;;;;;;;25.07;39.99;102700.03;5090218;28;20055;-68
2022/08/06 10:06:06;;;;;;;3.20;0.75;;;;;;;24.67;37.92;102703.94;5092201;28;20052;-59
2022/08/06 10:08:41;;;;;;;3.88;0.70;;;;;;;24.16;38.69;102692.63;5091809;28;20048;-57
2022/08/06 10:11:11;;;;;;;3.47;0.65;;;;;;;24.28;39.63;102693.28;5088821;28;20044;-61
2022/08/06 10:13:39;;;;;;;2.75;0.68;;;;;;;24.09;37.66;102688.81;5089606;28;20032;-60
2022/08/06 10:16:17;;;;;;;2.38;0.65;;;;;;;23.87;38.17;102693.47;5092586;28;20494;-65
2022/08/06 10:18:47;;;;;;;1.90;0.70;;;;;;;23.73;37.76;102692.09;5091938;28;20482;-61
2022/08/06 10:21:27;;;;;;;1.92;0.68;;;;;;;24.01;38.05;102688.69;5091740;28;20051;-56
2022/08/06 10:24:11;;;;;;;3.15;0.70;;;;;;;24.69;36.27;102696.56;5091568;28;20051;-61
2022/08/06 10:26:42;;;;;;;1.88;0.60;;;;;;;24.79;35.59;102694.66;5091678;28;20068;-59
2022/08/06 10:29:12;;;;;;;1.77;0.68;;;;;;;25.21;35.77;102681.66;5091727;28;20055;-58
2022/08/06 10:31:42;;;;;;;2.55;0.60;;;;;;;25.11;33.79;102682.59;5089318;28;20127;-57
2022/08/06 10:34:11;;;;;;;3.03;0.70;;;;;;;25.28;34.45;102677.38;5089293;28;20044;-58
2022/08/06 10:36:49;;;;;;;6.18;1.05;;;;;;;25.57;35.54;102666.38;5091740;28;20048;-64
2022/08/06 10:39:22;;;;;;;2.72;0.68;;;;;;;26.11;35.38;102673.50;5092076;28;20046;-70
2022/08/06 10:42:13;;;;;;;3.33;0.80;;;;;;;26.51;33.33;102673.91;5091557;28;20093;-64
2022/08/06 10:44:50;;;;;;;5.13;1.15;;;;;;;26.54;32.72;102671.72;5090856;28;20447;-61
2022/08/06 10:47:21;;;;;;;3.72;0.80;;;;;;;26.47;32.48;102676.09;5087401;28;20058;-59
2022/08/06 10:50:13;;;;;;;11.13;1.50;;;;;;;26.34;34.58;102670.28;5090579;28;20125;-63
2022/08/06 10:52:56;;;;;;;1.70;0.60;;;;;;;25.87;33.15;102668.81;5091657;28;20083;-56
2022/08/06 10:55:24;;;;;;;1.95;0.50;;;;;;;25.97;35.40;102673.09;5091194;28;20079;-60
2022/08/06 10:58:14;;;;;;;2.80;0.80;;;;;;;25.82;34.62;102669.25;5093272;28;20140;-59
2022/08/06 11:00:45;;;;;;;4.40;0.70;;;;;;;25.40;34.70;102661.84;5093627;28;20086;-66
2022/08/06 11:03:39;;;;;;;2.17;0.75;;;;;;;25.40;36.60;102665.41;5093119;28;20101;-62
2022/08/06 11:06:34;;;;;;;3.28;0.82;;;;;;;24.69;34.09;102664.28;5095226;28;20052;-63
2022/08/06 11:09:16;;;;;;;3.45;0.60;;;;;;;24.91;35.90;102670.22;5094976;28;20044;-59
2022/08/06 11:12:05;;;;;;;1.58;0.60;;;;;;;24.89;36.78;102669.56;5095019;28;20123;-57
2022/08/06 11:14:45;;;;;;;3.17;1.10;;;;;;;24.59;35.71;102674.22;5093445;28;20087;-57
2022/08/06 11:17:13;;;;;;;2.05;0.60;;;;;;;24.35;37.29;102662.16;5091535;28;20390;-57
2022/08/06 11:19:46;;;;;;;2.58;0.70;;;;;;;23.99;35.98;102661.13;5094307;28;20044;-57
2022/08/06 11:22:39;;;;;;;1.58;0.60;;;;;;;24.21;37.09;102665.31;5093229;28;20082;-57
2022/08/06 11:25:40;;;;;;;2.55;0.68;;;;;;;24.24;36.31;102665.00;5094912;28;20040;-58
2022/08/06 11:28:12;;;;;;;3.17;0.93;;;;;;;24.19;36.84;102660.06;5094388;28;20147;-59
2022/08/06 11:30:45;;;;;;;1.95;0.68;;;;;;;24.02;39.03;102664.34;5090019;28;20078;-58
2022/08/06 11:33:16;;;;;;;2.72;0.90;;;;;;;24.77;38.65;102661.69;5091020;28;20495;-58
2022/08/06 11:35:48;;;;;;;2.70;0.70;;;;;;;25.28;36.64;102656.66;5093243;28;20487;-58
2022/08/06 11:38:59;;;;;;;3.45;0.70;;;;;;;25.51;35.89;102653.53;5093935;28;20056;-59
2022/08/06 11:41:48;;;;;;;3.72;0.93;;;;;;;25.45;37.16;102656.84;5094288;28;20048;-59
2022/08/06 11:44:26;;;;;;;3.35;0.90;;;;;;;25.14;36.96;102663.44;5092009;28;20044;-63
2022/08/06 11:47:19;;;;;;;3.17;0.70;;;;;;;25.10;35.76;102655.81;5091595;28;20059;-63
2022/08/06 11:50:00;;;;;;;1.55;0.75;;;;;;;24.88;36.84;102657.09;5094561;28;20044;-62
2022/08/06 11:52:43;;;;;;;3.20;0.70;;;;;;;24.69;36.10;102658.91;5093935;28;20119;-62
2022/08/06 11:55:14;;;;;;;3.83;0.85;;;;;;;24.48;37.88;102654.56;5093697;28;20069;-61
2022/08/06 11:58:14;;;;;;;2.90;0.68;;;;;;;24.33;38.83;102657.91;5091024;28;20048;-62
2022/08/06 12:00:56;;;;;;;4.22;0.90;;;;;;;24.15;38.04;102658.69;5091607;28;20085;-61
2022/08/06 12:03:39;;;;;;;2.95;0.80;;;;;;;24.22;37.86;102654.41;5093678;28;20051;-57
2022/08/06 12:06:21;;;;;;;3.03;0.95;;;;;;;23.60;38.45;102662.84;5093731;28;20052;-61
2022/08/06 12:09:07;;;;;;;4.18;0.80;;;;;;;23.50;39.54;102653.94;5093298;28;20439;-60
2022/08/06 12:11:39;;;;;;;2.72;0.77;;;;;;;23.44;39.90;102660.72;5093782;28;20498;-60
2022/08/06 12:14:41;;;;;;;5.55;0.73;;;;;;;23.21;39.82;102656.63;5091379;28;20048;-63
2022/08/06 12:17:18;;;;;;;2.45;0.77;;;;;;;23.20;40.03;102658.44;5092885;28;20136;-59